createdAt,value
2022-08-12T00:00:36.920Z,90.30
2022-08-12T00:03:24.533Z,90.50
2022-08-12T00:06:10.900Z,90.70
2022-08-12T00:09:00.811Z,91.10
2022-08-12T00:11:47.428Z,91.50
2022-08-12T00:14:33.375Z,92.10
2022-08-12T00:17:19.454Z,92.60
2022-08-12T00:20:06.825Z,93.20
2022-08-12T00:22:59.809Z,93.60
2022-08-12T00:26:21.556Z,94.10
2022-08-12T00:29:02.994Z,94.70
2022-08-12T00:31:49.674Z,95.40
2022-08-12T00:34:36.003Z,95.80
2022-08-12T00:37:24.204Z,96.10
2022-08-12T00:40:12.022Z,96.40
2022-08-12T00:42:41.799Z,97.00
2022-08-12T00:45:11.910Z,97.60
2022-08-12T00:47:41.981Z,98.30
2022-08-12T00:50:18.120Z,98.90
2022-08-12T00:52:52.313Z,99.60
2022-08-12T00:55:21.949Z,99.90
2022-08-12T00:57:52.360Z,99.90
2022-08-12T01:00:23.872Z,99.90
2022-08-12T01:02:57.456Z,99.90
2022-08-12T01:05:44.688Z,99.90
2022-08-12T01:08:43.589Z,99.90
2022-08-12T01:11:33.730Z,99.90
2022-08-12T01:14:03.546Z,99.90
2022-08-12T01:16:32.365Z,99.90
2022-08-12T01:19:05.390Z,99.90
2022-08-12T01:21:50.750Z,99.90
2022-08-12T01:24:43.970Z,99.90
2022-08-12T01:27:15.543Z,99.90
2022-08-12T01:29:48.882Z,99.90
2022-08-12T01:32:19.962Z,99.90
2022-08-12T01:34:56.780Z,99.90
2022-08-12T01:37:27.429Z,99.90
2022-08-12T01:40:35.258Z,99.90
2022-08-12T01:42:51.890Z,99.90
2022-08-12T01:45:25.029Z,99.90
2022-08-12T01:48:12.980Z,99.90
2022-08-12T01:51:00.397Z,99.90
2022-08-12T01:53:50.649Z,99.90
2022-08-12T01:56:26.660Z,99.90
2022-08-12T01:59:17.694Z,99.90
2022-08-12T02:01:49.881Z,99.90
2022-08-12T02:04:46.466Z,99.90
2022-08-12T02:07:57.368Z,99.90
2022-08-12T02:10:55.946Z,99.90
2022-08-12T02:13:50.075Z,99.90
2022-08-12T02:16:41.031Z,99.90
2022-08-12T02:19:30.235Z,99.90
2022-08-12T02:22:11.217Z,99.90
2022-08-12T02:24:42.633Z,99.90
2022-08-12T02:27:13.488Z,99.90
2022-08-12T02:29:43.592Z,99.90
2022-08-12T02:32:12.439Z,99.90
2022-08-12T02:34:41.327Z,99.90
2022-08-12T02:37:14.389Z,99.90
2022-08-12T02:39:49.571Z,99.90
2022-08-12T02:42:22.264Z,99.90
2022-08-12T02:44:54.164Z,99.90
2022-08-12T02:47:59.835Z,99.90
2022-08-12T02:50:17.833Z,99.90
2022-08-12T02:52:47.652Z,99.90
2022-08-12T02:55:28.900Z,99.90
2022-08-12T02:58:12.496Z,99.90
2022-08-12T03:00:46.014Z,99.90
2022-08-12T03:03:15.959Z,99.90
2022-08-12T03:05:52.720Z,99.90
2022-08-12T03:08:32.638Z,99.90
2022-08-12T03:11:07.878Z,99.90
2022-08-12T03:13:48.365Z,99.90
2022-08-12T03:16:20.349Z,99.90
2022-08-12T03:18:50.417Z,99.90
2022-08-12T03:21:55.334Z,99.90
2022-08-12T03:24:09.655Z,99.90
2022-08-12T03:26:38.740Z,99.90
2022-08-12T03:29:08.279Z,99.90
2022-08-12T03:31:38.392Z,99.90
2022-08-12T03:34:08.906Z,99.90
2022-08-12T03:36:41.047Z,99.90
2022-08-12T03:39:36.146Z,99.90
2022-08-12T03:42:22.221Z,99.90
2022-08-12T03:45:16.055Z,99.90
2022-08-12T03:48:13.416Z,99.90
2022-08-12T03:51:06.648Z,99.90
2022-08-12T03:53:53.101Z,99.90
2022-08-12T03:56:39.453Z,99.90
2022-08-12T03:59:26.449Z,99.90
2022-08-12T04:01:58.440Z,99.90
2022-08-12T04:04:35.464Z,99.90
2022-08-12T04:07:07.845Z,99.90
2022-08-12T04:09:39.465Z,99.90
2022-08-12T04:12:26.766Z,99.90
2022-08-12T04:15:03.480Z,99.90
2022-08-12T04:17:33.384Z,99.90
2022-08-12T04:20:04.546Z,99.90
2022-08-12T04:22:33.622Z,99.90
2022-08-12T04:25:02.955Z,99.90
2022-08-12T04:27:32.905Z,99.90
2022-08-12T04:30:17.221Z,99.90
2022-08-12T04:32:52.427Z,99.90
2022-08-12T04:35:24.452Z,99.90
2022-08-12T04:37:57.924Z,99.90
2022-08-12T04:40:30.923Z,99.90
2022-08-12T04:43:01.353Z,99.90
2022-08-12T04:45:32.997Z,99.90
2022-08-12T04:48:02.663Z,99.90
2022-08-12T04:50:37.254Z,99.90
2022-08-12T04:53:09.007Z,99.90
2022-08-12T04:55:39.548Z,99.90
2022-08-12T04:58:08.928Z,99.90
2022-08-12T05:00:38.934Z,99.90
2022-08-12T05:03:08.616Z,99.90
2022-08-12T05:05:40.712Z,99.90
2022-08-12T05:08:12.809Z,99.90
2022-08-12T05:10:41.697Z,99.90
2022-08-12T05:13:14.471Z,99.90
2022-08-12T05:16:02.635Z,99.90
2022-08-12T05:18:35.106Z,99.90
2022-08-12T05:21:10.117Z,99.90
2022-08-12T05:23:39.542Z,99.90
2022-08-12T05:26:08.604Z,99.90
2022-08-12T05:28:37.494Z,99.90
2022-08-12T05:31:06.767Z,99.90
2022-08-12T05:33:40.236Z,99.90
2022-08-12T05:36:14.003Z,99.90
2022-08-12T05:38:58.453Z,99.90
2022-08-12T05:41:28.579Z,99.90
2022-08-12T05:43:59.441Z,99.90
2022-08-12T05:46:30.096Z,99.90
2022-08-12T05:49:00.849Z,99.90
2022-08-12T05:51:40.238Z,99.90
2022-08-12T05:54:11.338Z,99.90
2022-08-12T05:56:41.595Z,99.90
2022-08-12T05:59:12.516Z,99.90
2022-08-12T06:02:08.787Z,99.90
2022-08-12T06:04:33.566Z,99.90
2022-08-12T06:08:00.391Z,99.90
2022-08-12T06:09:56.609Z,99.90
2022-08-12T06:12:25.351Z,99.90
2022-08-12T06:14:55.123Z,99.90
2022-08-12T06:17:23.672Z,99.90
2022-08-12T06:20:25.931Z,99.90
2022-08-12T06:22:42.378Z,99.90
2022-08-12T06:25:18.508Z,99.90
2022-08-12T06:28:06.259Z,99.90
2022-08-12T06:30:39.429Z,99.90
2022-08-12T06:33:57.651Z,99.90
2022-08-12T06:35:59.072Z,99.90
2022-08-12T06:38:31.432Z,99.90
2022-08-12T06:41:19.034Z,99.90
2022-08-12T06:44:06.336Z,99.90
2022-08-12T06:46:38.827Z,99.90
2022-08-12T06:49:08.647Z,99.90
2022-08-12T06:51:37.251Z,99.90
2022-08-12T06:54:10.630Z,99.90
2022-08-12T06:57:02.928Z,99.90
2022-08-12T06:59:27.960Z,99.90
2022-08-12T07:01:56.543Z,99.90
2022-08-12T07:04:36.375Z,99.90
2022-08-12T07:07:07.134Z,99.90
2022-08-12T07:10:00.035Z,99.90
2022-08-12T07:12:28.055Z,99.90
2022-08-12T07:14:58.087Z,99.90
2022-08-12T07:17:36.577Z,99.90
2022-08-12T07:20:10.006Z,99.90
2022-08-12T07:22:39.793Z,99.90
2022-08-12T07:25:30.506Z,99.90
2022-08-12T07:28:16.882Z,99.90
2022-08-12T07:30:49.190Z,99.90
2022-08-12T07:33:19.498Z,99.90
2022-08-12T07:35:48.685Z,99.90
2022-08-12T07:38:29.019Z,99.90
2022-08-12T07:41:04.483Z,99.90
2022-08-12T07:43:35.587Z,99.90
2022-08-12T07:46:07.701Z,99.90
2022-08-12T07:48:39.744Z,99.90
2022-08-12T07:51:08.932Z,99.90
2022-08-12T07:53:50.176Z,99.90
2022-08-12T07:56:29.603Z,99.90
2022-08-12T07:58:59.344Z,99.90
2022-08-12T08:01:28.504Z,99.90
2022-08-12T08:04:18.706Z,99.90
2022-08-12T08:06:48.959Z,99.90
2022-08-12T08:09:21.390Z,99.90
2022-08-12T08:12:09.299Z,99.90
2022-08-12T08:14:49.847Z,99.90
2022-08-12T08:17:19.127Z,99.90
2022-08-12T08:20:02.521Z,99.90
2022-08-12T08:22:41.314Z,99.90
2022-08-12T08:25:35.055Z,99.90
2022-08-12T08:28:03.206Z,99.90
2022-08-12T08:30:33.646Z,99.90
2022-08-12T08:33:02.265Z,99.90
2022-08-12T08:35:46.983Z,99.90
2022-08-12T08:38:30.739Z,99.90
2022-08-12T08:42:17.444Z,99.90
2022-08-12T08:44:10.875Z,99.90
2022-08-12T08:46:40.456Z,99.90
2022-08-12T08:49:09.095Z,99.90
2022-08-12T08:51:39.022Z,99.90
2022-08-12T08:54:08.645Z,99.90
2022-08-12T08:56:44.003Z,99.60
2022-08-12T08:59:15.022Z,98.60
2022-08-12T09:01:44.781Z,97.80
2022-08-12T09:05:13.341Z,96.30
2022-08-12T09:07:17.640Z,95.60
2022-08-12T09:10:03.215Z,95.20
2022-08-12T09:12:54.137Z,94.60
2022-08-12T09:15:35.436Z,94.00
2022-08-12T09:18:09.046Z,93.20
2022-08-12T09:20:39.438Z,92.40
2022-08-12T09:23:57.419Z,91.50
2022-08-12T09:26:03.892Z,90.50
2022-08-12T09:28:34.618Z,88.70
2022-08-12T09:32:07.437Z,87.20
2022-08-12T09:34:26.143Z,86.10
2022-08-12T09:36:57.761Z,82.70
2022-08-12T09:40:05.413Z,81.00
2022-08-12T09:42:43.630Z,77.80
2022-08-12T09:46:07.066Z,77.10
2022-08-12T09:48:20.061Z,76.30
2022-08-12T09:50:55.578Z,73.70
2022-08-12T09:53:36.567Z,72.40
2022-08-12T09:56:59.943Z,71.20
2022-08-12T09:59:01.983Z,69.60
2022-08-12T10:01:34.350Z,70.10
2022-08-12T10:04:11.789Z,69.10
2022-08-12T10:06:54.636Z,68.60
2022-08-12T10:09:39.146Z,67.70
2022-08-12T10:12:33.279Z,66.80
2022-08-12T10:15:02.984Z,65.80
2022-08-12T10:17:31.665Z,65.30
2022-08-12T10:20:01.911Z,64.50
2022-08-12T10:22:37.240Z,63.60
2022-08-12T10:26:18.511Z,63.10
2022-08-12T10:28:38.356Z,62.60
2022-08-12T10:31:16.022Z,61.70
2022-08-12T10:34:05.185Z,60.50
2022-08-12T10:36:42.503Z,59.60
2022-08-12T10:40:00.287Z,59.40
2022-08-12T10:42:29.233Z,59.50
2022-08-12T10:45:03.760Z,58.70
2022-08-12T10:48:07.036Z,58.10
2022-08-12T10:50:39.704Z,57.60
2022-08-12T10:53:19.620Z,56.90
2022-08-12T10:55:56.071Z,56.40
2022-08-12T10:58:30.960Z,56.00
2022-08-12T11:04:14.815Z,55.80
2022-08-12T11:04:31.871Z,55.50
2022-08-12T11:07:05.632Z,55.30
2022-08-12T11:09:55.757Z,55.40
2022-08-12T11:12:54.845Z,55.20
2022-08-12T11:15:19.299Z,55.20
2022-08-12T11:17:53.623Z,54.40
2022-08-12T11:20:24.244Z,53.70
2022-08-12T11:22:59.353Z,53.30
2022-08-12T11:25:56.429Z,52.90
2022-08-12T11:28:33.615Z,52.90
2022-08-12T11:31:04.262Z,52.50
2022-08-12T11:34:06.373Z,52.30
2022-08-12T11:36:22.453Z,52.50
2022-08-12T11:38:51.518Z,52.50
2022-08-12T11:41:31.150Z,52.40
2022-08-12T11:44:29.166Z,52.50
2022-08-12T11:46:51.242Z,52.10
2022-08-12T11:49:31.602Z,52.10
2022-08-12T11:52:02.813Z,51.90
2022-08-12T11:54:32.032Z,52.20
2022-08-12T11:58:07.493Z,51.60
2022-08-12T12:02:41.389Z,51.30
2022-08-12T12:05:10.351Z,50.90
2022-08-12T12:08:38.489Z,50.50
2022-08-12T12:10:30.992Z,50.40
2022-08-12T12:13:01.145Z,50.40
2022-08-12T12:15:40.629Z,49.90
2022-08-12T12:18:22.350Z,49.30
2022-08-12T12:21:01.070Z,48.90
2022-08-12T12:23:30.905Z,48.10
2022-08-12T12:26:08.028Z,48.70
2022-08-12T12:28:41.641Z,48.10
2022-08-12T12:32:10.825Z,48.30
2022-08-12T12:34:12.975Z,47.70
2022-08-12T12:37:00.978Z,47.40
2022-08-12T12:39:30.092Z,47.50
2022-08-12T12:42:55.940Z,47.30
2022-08-12T12:45:19.489Z,47.20
2022-08-12T12:47:59.897Z,47.20
2022-08-12T12:50:35.241Z,47.10
2022-08-12T12:53:04.906Z,46.80
2022-08-12T12:55:35.773Z,46.80
2022-08-12T12:58:09.591Z,46.30
2022-08-12T13:00:41.278Z,45.60
2022-08-12T13:03:21.981Z,45.60
2022-08-12T13:05:53.922Z,45.50
2022-08-12T13:08:28.246Z,45.70
2022-08-12T13:11:05.204Z,45.80
2022-08-12T13:14:09.203Z,45.80
2022-08-12T13:16:29.374Z,45.60
2022-08-12T13:18:58.532Z,45.40
2022-08-12T13:21:33.109Z,45.20
2022-08-12T13:24:09.707Z,45.60
2022-08-12T13:26:40.443Z,45.10
2022-08-12T13:29:11.437Z,45.20
2022-08-12T13:31:46.391Z,44.90
2022-08-12T13:34:35.608Z,44.80
2022-08-12T13:37:09.610Z,44.50
2022-08-12T13:39:39.236Z,44.50
2022-08-12T13:42:14.283Z,44.50
2022-08-12T13:44:43.790Z,44.20
2022-08-12T13:47:19.515Z,44.30
2022-08-12T13:49:55.292Z,44.30
2022-08-12T13:52:25.609Z,44.00
2022-08-12T13:54:56.710Z,44.20
2022-08-12T13:57:44.555Z,44.20
2022-08-12T14:00:17.036Z,44.10
2022-08-12T14:02:47.651Z,44.00
2022-08-12T14:05:31.257Z,43.90
2022-08-12T14:08:09.315Z,43.80
2022-08-12T14:10:50.935Z,43.50
2022-08-12T14:14:03.828Z,43.40
2022-08-12T14:16:14.282Z,43.40
2022-08-12T14:18:49.033Z,43.60
2022-08-12T14:21:22.394Z,43.50
2022-08-12T14:24:05.745Z,43.70
2022-08-12T14:26:39.021Z,43.40
2022-08-12T14:29:08.312Z,43.30
2022-08-12T14:31:40.804Z,44.00
2022-08-12T14:34:13.444Z,43.40
2022-08-12T14:36:42.357Z,43.20
2022-08-12T14:39:11.140Z,43.40
2022-08-12T14:41:48.489Z,43.50
2022-08-12T14:44:59.151Z,43.20
2022-08-12T14:47:14.272Z,42.90
2022-08-12T14:50:37.369Z,42.90
2022-08-12T14:58:22.435Z,42.70
2022-08-12T15:01:08.642Z,42.90
2022-08-12T15:03:52.141Z,42.70
2022-08-12T15:06:44.546Z,42.50
2022-08-12T15:09:14.063Z,42.30
2022-08-12T15:11:54.458Z,42.50
2022-08-12T15:14:25.670Z,42.50
2022-08-12T15:16:54.982Z,42.60
2022-08-12T15:20:07.442Z,43.10
2022-08-12T15:22:37.595Z,43.00
2022-08-12T15:25:07.560Z,43.10
2022-08-12T15:28:04.656Z,43.10
2022-08-12T15:30:33.854Z,42.80
2022-08-12T15:33:12.655Z,42.50
2022-08-12T15:35:50.194Z,42.60
2022-08-12T15:38:28.284Z,42.70
2022-08-12T15:40:59.050Z,42.80
2022-08-12T15:44:17.128Z,43.20
2022-08-12T15:46:21.159Z,42.80
2022-08-12T15:48:55.555Z,42.50
2022-08-12T15:51:58.269Z,42.90
2022-08-12T15:54:33.744Z,43.00
2022-08-12T15:57:05.607Z,43.20
2022-08-12T16:00:04.076Z,43.10
2022-08-12T16:02:26.681Z,43.20
2022-08-12T16:04:56.079Z,42.90
2022-08-12T16:07:29.952Z,42.50
2022-08-12T16:10:05.681Z,43.20
2022-08-12T16:12:43.725Z,42.90
2022-08-12T16:15:26.735Z,43.40
2022-08-12T16:18:14.924Z,43.30
2022-08-12T16:20:47.490Z,43.00
2022-08-12T16:23:36.361Z,43.30
2022-08-12T16:26:15.188Z,42.90
2022-08-12T16:28:47.455Z,42.90
2022-08-12T16:31:23.004Z,43.50
2022-08-12T16:33:59.612Z,43.40
2022-08-12T16:36:30.466Z,43.60
2022-08-12T16:39:01.632Z,43.60
2022-08-12T16:41:39.541Z,43.30
2022-08-12T16:44:09.401Z,43.20
2022-08-12T16:46:39.291Z,43.30
2022-08-12T16:49:08.895Z,43.50
2022-08-12T16:51:46.922Z,43.50
2022-08-12T16:54:18.617Z,43.50
2022-08-12T16:56:54.640Z,43.10
2022-08-12T16:59:31.078Z,42.80
2022-08-12T17:02:30.127Z,42.90
2022-08-12T17:05:03.323Z,42.70
2022-08-12T17:07:37.208Z,43.00
2022-08-12T17:10:07.962Z,43.20
2022-08-12T17:12:38.587Z,43.20
2022-08-12T17:15:51.233Z,43.30
2022-08-12T17:18:15.503Z,43.40
2022-08-12T17:20:48.316Z,43.60
2022-08-12T17:23:19.222Z,43.50
2022-08-12T17:25:51.163Z,43.30
2022-08-12T17:28:22.513Z,42.90
2022-08-12T17:30:59.589Z,42.50
2022-08-12T17:33:33.652Z,42.00
2022-08-12T17:36:05.863Z,41.70
2022-08-12T17:38:35.745Z,41.80
2022-08-12T17:41:22.239Z,41.80
2022-08-12T17:43:57.272Z,41.80
2022-08-12T17:46:33.067Z,41.80
2022-08-12T17:49:18.821Z,41.90
2022-08-12T17:52:02.268Z,42.20
2022-08-12T17:54:32.832Z,42.40
2022-08-12T17:57:16.165Z,42.70
2022-08-12T17:59:48.642Z,43.50
2022-08-12T18:02:25.673Z,44.80
2022-08-12T18:05:05.311Z,45.50
2022-08-12T18:07:39.455Z,46.00
2022-08-12T18:10:09.105Z,46.60
2022-08-12T18:12:47.099Z,46.80
2022-08-12T18:15:26.692Z,46.90
2022-08-12T18:18:16.960Z,47.10
2022-08-12T18:20:48.034Z,47.20
2022-08-12T18:23:23.778Z,47.30
2022-08-12T18:26:17.711Z,47.40
2022-08-12T18:28:48.190Z,47.60
2022-08-12T18:31:23.406Z,47.90
2022-08-12T18:33:53.453Z,48.20
2022-08-12T18:36:23.430Z,48.30
2022-08-12T18:38:55.842Z,48.50
2022-08-12T18:41:33.572Z,48.70
2022-08-12T18:44:09.721Z,48.90
2022-08-12T18:47:02.142Z,49.90
2022-08-12T18:49:39.319Z,49.70
2022-08-12T18:52:11.453Z,49.90
2022-08-12T18:54:49.528Z,50.30
2022-08-12T18:57:59.703Z,50.70
2022-08-12T19:00:21.360Z,50.90
2022-08-12T19:02:54.019Z,51.10
2022-08-12T19:05:53.609Z,51.40
2022-08-12T19:08:14.302Z,51.50
2022-08-12T19:10:51.126Z,52.10
2022-08-12T19:13:39.015Z,52.30
2022-08-12T19:16:10.761Z,52.70
2022-08-12T19:18:44.778Z,53.10
2022-08-12T19:21:16.924Z,53.50
2022-08-12T19:24:10.581Z,54.20
2022-08-12T19:26:38.801Z,54.50
2022-08-12T19:29:08.655Z,54.90
2022-08-12T19:31:57.751Z,55.50
2022-08-12T19:35:59.006Z,56.30
2022-08-12T19:37:27.096Z,56.30
2022-08-12T19:40:08.961Z,56.60
2022-08-12T19:42:57.491Z,57.10
2022-08-12T19:45:42.343Z,57.80
2022-08-12T19:48:16.964Z,58.40
2022-08-12T19:50:52.512Z,58.90
2022-08-12T19:53:23.503Z,59.80
2022-08-12T19:55:53.417Z,59.90
2022-08-12T19:58:23.819Z,60.00
2022-08-12T20:00:54.906Z,60.60
2022-08-12T20:03:37.881Z,61.20
2022-08-12T20:06:13.917Z,61.70
2022-08-12T20:08:49.254Z,61.80
2022-08-12T20:12:11.679Z,61.90
2022-08-12T20:14:17.981Z,62.20
2022-08-12T20:16:53.039Z,62.30
2022-08-12T20:19:52.945Z,62.50
2022-08-12T20:22:24.199Z,62.30
2022-08-12T20:25:01.512Z,62.20
2022-08-12T20:28:04.061Z,62.50
2022-08-12T20:30:37.727Z,62.60
2022-08-12T20:33:17.702Z,62.30
2022-08-12T20:36:13.214Z,62.40
2022-08-12T20:38:42.150Z,62.60
2022-08-12T20:41:17.667Z,62.30
2022-08-12T20:43:50.595Z,61.90
2022-08-12T20:46:21.466Z,61.50
2022-08-12T20:48:55.281Z,61.40
2022-08-12T20:51:50.877Z,61.40
2022-08-12T20:54:19.585Z,61.40
2022-08-12T20:56:49.476Z,61.30
2022-08-12T20:59:20.332Z,61.90
2022-08-12T21:01:54.229Z,61.20
2022-08-12T21:04:40.433Z,61.30
2022-08-12T21:07:13.923Z,62.10
2022-08-12T21:09:47.570Z,61.60
2022-08-12T21:12:27.524Z,61.70
2022-08-12T21:15:18.021Z,62.10
2022-08-12T21:18:15.563Z,62.50
2022-08-12T21:20:52.727Z,62.50
2022-08-12T21:23:22.880Z,62.60
2022-08-12T21:26:01.125Z,62.70
2022-08-12T21:28:31.060Z,63.30
2022-08-12T21:32:37.459Z,63.30
2022-08-12T21:34:07.556Z,63.50
2022-08-12T21:36:48.099Z,63.90
2022-08-12T21:39:21.219Z,64.40
2022-08-12T21:41:53.463Z,65.10
2022-08-12T21:44:24.243Z,66.20
2022-08-12T21:47:20.324Z,66.00
2022-08-12T21:50:02.295Z,66.30
2022-08-12T21:52:35.543Z,66.60
2022-08-12T21:55:08.528Z,67.70
2022-08-12T21:57:53.662Z,67.50
2022-08-12T22:00:32.252Z,67.90
2022-08-12T22:04:01.432Z,68.20
2022-08-12T22:06:26.143Z,68.40
2022-08-12T22:09:02.638Z,68.70
2022-08-12T22:11:42.379Z,69.00
2022-08-12T22:14:21.357Z,69.20
2022-08-12T22:16:52.807Z,69.30
2022-08-12T22:19:23.001Z,69.40
2022-08-12T22:21:54.643Z,69.70
2022-08-12T22:24:27.181Z,69.80
2022-08-12T22:27:18.083Z,70.10
2022-08-12T22:30:08.365Z,70.30
2022-08-12T22:32:50.611Z,70.60
2022-08-12T22:35:55.764Z,70.60
2022-08-12T22:38:26.653Z,70.80
2022-08-12T22:41:01.028Z,71.10
2022-08-12T22:43:58.556Z,71.40
2022-08-12T22:46:53.060Z,71.60
2022-08-12T22:49:36.442Z,72.00
2022-08-12T22:52:13.086Z,72.00
2022-08-12T22:55:00.093Z,72.30
2022-08-12T22:57:54.166Z,72.70
2022-08-12T23:00:27.946Z,73.00
2022-08-12T23:03:02.987Z,73.40
2022-08-12T23:05:57.305Z,73.30
2022-08-12T23:08:30.183Z,73.60
2022-08-12T23:11:06.029Z,73.70
2022-08-12T23:13:55.317Z,74.10
2022-08-12T23:16:31.078Z,75.00
2022-08-12T23:19:10.015Z,74.40
2022-08-12T23:22:06.140Z,74.70
2022-08-12T23:24:31.292Z,75.00
2022-08-12T23:27:18.920Z,75.20
2022-08-12T23:30:17.318Z,75.60
2022-08-12T23:32:38.240Z,75.80
2022-08-12T23:35:09.102Z,76.00
2022-08-12T23:37:53.561Z,76.20
2022-08-12T23:40:24.373Z,76.40
2022-08-12T23:42:55.095Z,76.80
2022-08-12T23:45:31.207Z,77.00
2022-08-12T23:48:01.935Z,77.20
2022-08-12T23:50:34.289Z,77.40
2022-08-12T23:53:22.573Z,77.90
2022-08-12T23:55:56.823Z,78.00
2022-08-12T23:58:31.234Z,78.30
